TimeCST,TemperatureF,Dew PointF,Humidity,Sea Level PressureIn,VisibilityMPH,Wind Direction,Wind SpeedMPH,Gust SpeedMPH,PrecipitationIn,Events,Conditions,WindDirDegrees,DateUTC
12:57 AM,27.0,17.1,66,30.04,10.0,NW,11.5,-,N/A,,Clear,320,2012-12-10 06:57:00
1:57 AM,26.1,17.1,69,30.03,10.0,NW,10.4,-,N/A,,Clear,310,2012-12-10 07:57:00
2:57 AM,25.0,17.1,72,30.04,10.0,NNW,11.5,-,N/A,,Clear,330,2012-12-10 08:57:00
3:57 AM,24.1,17.1,75,30.04,10.0,NW,16.1,-,N/A,,Mostly Cloudy,310,2012-12-10 09:57:00
4:57 AM,24.1,17.1,75,30.03,10.0,NW,12.7,20.7,N/A,,Overcast,320,2012-12-10 10:57:00
5:57 AM,23.0,15.1,72,30.06,10.0,WNW,8.1,-,N/A,,Overcast,300,2012-12-10 11:57:00
6:45 AM,23.0,15.8,74,30.06,10.0,NW,11.5,-,N/A,,Overcast,320,2012-12-10 12:45:00
6:57 AM,23.0,15.1,72,30.09,10.0,WNW,10.4,-,N/A,,Overcast,300,2012-12-10 12:57:00
7:57 AM,23.0,16.0,74,30.11,10.0,WNW,10.4,-,N/A,,Overcast,290,2012-12-10 13:57:00
8:57 AM,24.1,16.0,71,30.09,10.0,WNW,12.7,-,N/A,,Overcast,290,2012-12-10 14:57:00
9:57 AM,25.0,18.0,75,30.10,10.0,WNW,8.1,-,N/A,,Overcast,290,2012-12-10 15:57:00
10:57 AM,27.0,19.0,72,30.10,10.0,NW,9.2,-,N/A,,Overcast,310,2012-12-10 16:57:00
11:57 AM,28.0,19.9,72,30.09,10.0,WNW,10.4,-,N/A,,Mostly Cloudy,300,2012-12-10 17:57:00
12:42 PM,28.4,19.4,69,30.03,10.0,NW,15.0,-,N/A,,Scattered Clouds,310,2012-12-10 18:42:00
12:57 PM,28.9,19.9,69,30.06,10.0,WNW,11.5,-,N/A,,Scattered Clouds,300,2012-12-10 18:57:00
1:08 PM,30.2,19.4,64,30.03,10.0,West,8.1,-,N/A,,Mostly Cloudy,270,2012-12-10 19:08:00
1:16 PM,30.2,19.4,64,30.02,10.0,WNW,10.4,19.6,N/A,,Scattered Clouds,300,2012-12-10 19:16:00
1:57 PM,30.9,19.9,64,30.06,10.0,West,10.4,16.1,N/A,,Clear,270,2012-12-10 19:57:00
2:57 PM,32.0,19.0,59,30.06,10.0,NW,5.8,-,N/A,,Clear,310,2012-12-10 20:57:00
3:57 PM,32.0,19.0,59,30.06,10.0,Variable,5.8,-,N/A,,Clear,0,2012-12-10 21:57:00
4:57 PM,28.9,19.9,69,30.06,10.0,NW,8.1,-,N/A,,Clear,310,2012-12-10 22:57:00
5:57 PM,27.0,19.0,72,30.09,10.0,WNW,5.8,-,N/A,,Clear,290,2012-12-10 23:57:00
6:57 PM,26.1,19.0,75,30.11,10.0,West,5.8,-,N/A,,Clear,270,2012-12-11 00:57:00
7:57 PM,24.1,18.0,77,30.10,10.0,South,5.8,-,N/A,,Clear,180,2012-12-11 01:57:00
8:57 PM,24.1,19.0,81,30.11,10.0,WSW,3.5,-,N/A,,Clear,250,2012-12-11 02:57:00
9:57 PM,23.0,19.0,85,30.12,10.0,Calm,Calm,-,N/A,,Clear,0,2012-12-11 03:57:00
10:57 PM,21.9,18.0,85,30.12,10.0,SW,3.5,-,N/A,,Clear,220,2012-12-11 04:57:00
11:57 PM,21.0,17.1,85,30.14,10.0,SSW,4.6,-,N/A,,Clear,200,2012-12-11 05:57:00